sensor_id;sensor_type;location;lat;lon;timestamp;P1;durP1;ratioP1;P2;durP2;ratioP2
79064;SDS011;68469;51.502;7.462;2023-04-15T00:01:21;3.40;;;1.05;;
79064;SDS011;68469;51.502;7.462;2023-04-15T00:03:49;1.88;;;0.95;;
79064;SDS011;68469;51.502;7.462;2023-04-15T00:06:19;3.92;;;1.00;;
79064;SDS011;68469;51.502;7.462;2023-04-15T00:08:45;2.05;;;1.17;;
79064;SDS011;68469;51.502;7.462;2023-04-15T00:11:11;3.65;;;1.33;;
79064;SDS011;68469;51.502;7.462;2023-04-15T00:13:37;2.58;;;1.30;;
79064;SDS011;68469;51.502;7.462;2023-04-15T00:16:04;2.72;;;1.10;;
79064;SDS011;68469;51.502;7.462;2023-04-15T00:18:30;2.08;;;1.13;;
79064;SDS011;68469;51.502;7.462;2023-04-15T00:20:56;2.67;;;1.08;;
79064;SDS011;68469;51.502;7.462;2023-04-15T00:23:22;2.25;;;1.10;;
79064;SDS011;68469;51.502;7.462;2023-04-15T00:25:48;2.60;;;1.05;;
79064;SDS011;68469;51.502;7.462;2023-04-15T00:28:14;4.32;;;1.20;;
79064;SDS011;68469;51.502;7.462;2023-04-15T00:30:40;1.40;;;0.80;;
79064;SDS011;68469;51.502;7.462;2023-04-15T00:33:06;4.68;;;1.00;;
79064;SDS011;68469;51.502;7.462;2023-04-15T00:35:32;2.85;;;1.30;;
79064;SDS011;68469;51.502;7.462;2023-04-15T00:37:58;1.75;;;0.90;;
79064;SDS011;68469;51.502;7.462;2023-04-15T00:40:24;1.85;;;1.00;;
79064;SDS011;68469;51.502;7.462;2023-04-15T00:42:50;2.67;;;1.10;;
79064;SDS011;68469;51.502;7.462;2023-04-15T00:45:16;2.15;;;1.00;;
79064;SDS011;68469;51.502;7.462;2023-04-15T00:47:42;1.92;;;0.95;;
79064;SDS011;68469;51.502;7.462;2023-04-15T00:50:08;4.68;;;0.93;;
79064;SDS011;68469;51.502;7.462;2023-04-15T00:52:35;1.38;;;0.93;;
79064;SDS011;68469;51.502;7.462;2023-04-15T00:55:01;3.45;;;1.02;;
79064;SDS011;68469;51.502;7.462;2023-04-15T00:57:28;1.42;;;0.93;;
79064;SDS011;68469;51.502;7.462;2023-04-15T00:59:54;1.85;;;0.80;;
79064;SDS011;68469;51.502;7.462;2023-04-15T01:02:21;2.50;;;0.98;;
79064;SDS011;68469;51.502;7.462;2023-04-15T01:04:47;1.50;;;1.00;;
79064;SDS011;68469;51.502;7.462;2023-04-15T01:07:13;2.30;;;1.00;;
79064;SDS011;68469;51.502;7.462;2023-04-15T01:09:39;4.72;;;1.50;;
79064;SDS011;68469;51.502;7.462;2023-04-15T01:12:05;2.45;;;1.15;;
79064;SDS011;68469;51.502;7.462;2023-04-15T01:14:33;1.50;;;1.05;;
79064;SDS011;68469;51.502;7.462;2023-04-15T01:16:59;2.35;;;1.10;;
79064;SDS011;68469;51.502;7.462;2023-04-15T01:19:24;2.42;;;0.95;;
79064;SDS011;68469;51.502;7.462;2023-04-15T01:21:51;1.92;;;0.98;;
79064;SDS011;68469;51.502;7.462;2023-04-15T01:24:17;2.05;;;1.00;;
79064;SDS011;68469;51.502;7.462;2023-04-15T01:26:43;2.88;;;1.10;;
79064;SDS011;68469;51.502;7.462;2023-04-15T01:29:10;1.33;;;0.80;;
79064;SDS011;68469;51.502;7.462;2023-04-15T01:31:36;2.35;;;1.00;;
79064;SDS011;68469;51.502;7.462;2023-04-15T01:34:02;1.65;;;0.98;;
79064;SDS011;68469;51.502;7.462;2023-04-15T01:36:28;1.77;;;0.95;;
79064;SDS011;68469;51.502;7.462;2023-04-15T01:38:54;1.20;;;0.70;;
79064;SDS011;68469;51.502;7.462;2023-04-15T01:41:27;1.48;;;0.70;;
79064;SDS011;68469;51.502;7.462;2023-04-15T01:43:53;1.38;;;0.77;;
79064;SDS011;68469;51.502;7.462;2023-04-15T01:46:19;2.65;;;1.10;;
79064;SDS011;68469;51.502;7.462;2023-04-15T01:48:44;2.45;;;0.80;;
79064;SDS011;68469;51.502;7.462;2023-04-15T01:51:10;1.63;;;0.93;;
79064;SDS011;68469;51.502;7.462;2023-04-15T01:53:36;1.38;;;0.70;;
79064;SDS011;68469;51.502;7.462;2023-04-15T01:56:02;2.30;;;0.88;;
79064;SDS011;68469;51.502;7.462;2023-04-15T01:58:28;1.63;;;0.90;;
79064;SDS011;68469;51.502;7.462;2023-04-15T02:00:54;2.15;;;1.20;;
79064;SDS011;68469;51.502;7.462;2023-04-15T02:03:20;1.10;;;0.70;;
79064;SDS011;68469;51.502;7.462;2023-04-15T02:05:45;1.48;;;0.73;;
79064;SDS011;68469;51.502;7.462;2023-04-15T02:08:11;4.10;;;0.90;;
79064;SDS011;68469;51.502;7.462;2023-04-15T02:10:37;1.48;;;0.80;;
79064;SDS011;68469;51.502;7.462;2023-04-15T02:13:02;2.20;;;0.82;;
79064;SDS011;68469;51.502;7.462;2023-04-15T02:15:28;1.70;;;0.95;;
79064;SDS011;68469;51.502;7.462;2023-04-15T02:17:54;1.38;;;0.80;;
79064;SDS011;68469;51.502;7.462;2023-04-15T02:20:20;1.55;;;0.82;;
79064;SDS011;68469;51.502;7.462;2023-04-15T02:22:47;1.35;;;0.82;;
79064;SDS011;68469;51.502;7.462;2023-04-15T02:25:13;1.67;;;0.77;;
79064;SDS011;68469;51.502;7.462;2023-04-15T02:27:40;2.45;;;0.70;;
79064;SDS011;68469;51.502;7.462;2023-04-15T02:30:06;1.27;;;0.90;;
79064;SDS011;68469;51.502;7.462;2023-04-15T02:32:32;2.83;;;0.82;;
79064;SDS011;68469;51.502;7.462;2023-04-15T02:35:01;1.50;;;0.90;;
79064;SDS011;68469;51.502;7.462;2023-04-15T02:37:28;1.05;;;0.68;;
79064;SDS011;68469;51.502;7.462;2023-04-15T02:39:55;1.20;;;0.80;;
79064;SDS011;68469;51.502;7.462;2023-04-15T02:42:21;1.80;;;1.02;;
79064;SDS011;68469;51.502;7.462;2023-04-15T02:44:46;2.05;;;0.82;;
79064;SDS011;68469;51.502;7.462;2023-04-15T02:47:12;1.08;;;0.70;;
79064;SDS011;68469;51.502;7.462;2023-04-15T02:49:38;1.60;;;0.82;;
79064;SDS011;68469;51.502;7.462;2023-04-15T02:52:04;1.02;;;0.80;;
79064;SDS011;68469;51.502;7.462;2023-04-15T02:54:31;3.22;;;1.17;;
79064;SDS011;68469;51.502;7.462;2023-04-15T02:56:58;2.08;;;0.90;;
79064;SDS011;68469;51.502;7.462;2023-04-15T02:59:23;2.25;;;1.23;;
79064;SDS011;68469;51.502;7.462;2023-04-15T03:01:49;1.80;;;0.73;;
79064;SDS011;68469;51.502;7.462;2023-04-15T03:04:15;2.28;;;1.10;;
79064;SDS011;68469;51.502;7.462;2023-04-15T03:06:41;1.92;;;0.82;;
79064;SDS011;68469;51.502;7.462;2023-04-15T03:09:06;1.52;;;0.80;;
79064;SDS011;68469;51.502;7.462;2023-04-15T03:11:32;1.77;;;0.90;;
79064;SDS011;68469;51.502;7.462;2023-04-15T03:13:58;1.80;;;0.88;;
79064;SDS011;68469;51.502;7.462;2023-04-15T03:16:23;1.20;;;0.80;;
79064;SDS011;68469;51.502;7.462;2023-04-15T03:18:49;1.33;;;0.80;;
79064;SDS011;68469;51.502;7.462;2023-04-15T03:21:15;2.40;;;1.00;;
79064;SDS011;68469;51.502;7.462;2023-04-15T03:23:41;1.60;;;0.90;;
79064;SDS011;68469;51.502;7.462;2023-04-15T03:26:06;2.38;;;1.10;;
79064;SDS011;68469;51.502;7.462;2023-04-15T03:28:32;1.30;;;0.80;;
79064;SDS011;68469;51.502;7.462;2023-04-15T03:30:58;1.83;;;0.90;;
79064;SDS011;68469;51.502;7.462;2023-04-15T03:33:24;2.70;;;1.02;;
79064;SDS011;68469;51.502;7.462;2023-04-15T03:35:50;1.23;;;0.77;;
79064;SDS011;68469;51.502;7.462;2023-04-15T03:38:17;1.00;;;0.60;;
79064;SDS011;68469;51.502;7.462;2023-04-15T03:40:42;2.38;;;0.88;;
79064;SDS011;68469;51.502;7.462;2023-04-15T03:43:10;1.17;;;0.57;;
79064;SDS011;68469;51.502;7.462;2023-04-15T03:45:36;1.70;;;0.77;;
79064;SDS011;68469;51.502;7.462;2023-04-15T03:48:02;1.95;;;1.10;;
79064;SDS011;68469;51.502;7.462;2023-04-15T03:50:27;1.10;;;0.60;;
79064;SDS011;68469;51.502;7.462;2023-04-15T03:52:53;1.10;;;0.77;;
79064;SDS011;68469;51.502;7.462;2023-04-15T03:55:18;1.48;;;0.82;;
79064;SDS011;68469;51.502;7.462;2023-04-15T03:57:44;1.10;;;0.70;;
79064;SDS011;68469;51.502;7.462;2023-04-15T04:00:10;2.53;;;0.73;;
79064;SDS011;68469;51.502;7.462;2023-04-15T04:02:36;1.30;;;0.75;;
79064;SDS011;68469;51.502;7.462;2023-04-15T04:05:02;1.35;;;0.90;;
79064;SDS011;68469;51.502;7.462;2023-04-15T04:07:28;1.27;;;0.60;;
79064;SDS011;68469;51.502;7.462;2023-04-15T04:09:53;1.42;;;0.82;;
79064;SDS011;68469;51.502;7.462;2023-04-15T04:12:20;1.13;;;0.70;;
79064;SDS011;68469;51.502;7.462;2023-04-15T04:14:46;4.68;;;1.08;;
79064;SDS011;68469;51.502;7.462;2023-04-15T04:17:12;2.97;;;0.90;;
79064;SDS011;68469;51.502;7.462;2023-04-15T04:19:37;1.52;;;0.65;;
79064;SDS011;68469;51.502;7.462;2023-04-15T04:22:03;1.52;;;0.73;;
79064;SDS011;68469;51.502;7.462;2023-04-15T04:24:29;1.02;;;0.63;;
79064;SDS011;68469;51.502;7.462;2023-04-15T04:26:55;1.20;;;0.75;;
79064;SDS011;68469;51.502;7.462;2023-04-15T04:29:21;2.42;;;0.90;;
79064;SDS011;68469;51.502;7.462;2023-04-15T04:31:46;1.38;;;0.70;;
79064;SDS011;68469;51.502;7.462;2023-04-15T04:34:12;1.52;;;0.80;;
79064;SDS011;68469;51.502;7.462;2023-04-15T04:36:38;1.33;;;0.70;;
79064;SDS011;68469;51.502;7.462;2023-04-15T04:39:04;2.60;;;0.95;;
79064;SDS011;68469;51.502;7.462;2023-04-15T04:41:30;1.38;;;0.77;;
79064;SDS011;68469;51.502;7.462;2023-04-15T04:43:56;1.00;;;0.75;;
79064;SDS011;68469;51.502;7.462;2023-04-15T04:46:21;0.80;;;0.52;;
79064;SDS011;68469;51.502;7.462;2023-04-15T04:48:47;2.35;;;0.60;;
79064;SDS011;68469;51.502;7.462;2023-04-15T04:51:13;1.95;;;0.70;;
79064;SDS011;68469;51.502;7.462;2023-04-15T04:53:39;1.77;;;0.77;;
79064;SDS011;68469;51.502;7.462;2023-04-15T04:56:04;1.20;;;0.88;;
79064;SDS011;68469;51.502;7.462;2023-04-15T04:58:30;1.55;;;0.75;;
79064;SDS011;68469;51.502;7.462;2023-04-15T05:00:56;1.75;;;0.93;;
79064;SDS011;68469;51.502;7.462;2023-04-15T05:03:22;2.00;;;0.73;;
79064;SDS011;68469;51.502;7.462;2023-04-15T05:05:48;1.25;;;0.50;;
79064;SDS011;68469;51.502;7.462;2023-04-15T05:08:14;0.98;;;0.63;;
79064;SDS011;68469;51.502;7.462;2023-04-15T05:10:40;1.20;;;0.80;;
79064;SDS011;68469;51.502;7.462;2023-04-15T05:13:06;2.70;;;0.80;;
79064;SDS011;68469;51.502;7.462;2023-04-15T05:15:31;1.85;;;0.70;;
79064;SDS011;68469;51.502;7.462;2023-04-15T05:17:58;1.80;;;0.70;;
79064;SDS011;68469;51.502;7.462;2023-04-15T05:20:24;0.90;;;0.70;;
79064;SDS011;68469;51.502;7.462;2023-04-15T05:22:50;1.50;;;0.57;;
79064;SDS011;68469;51.502;7.462;2023-04-15T05:25:15;1.50;;;1.00;;
79064;SDS011;68469;51.502;7.462;2023-04-15T05:27:41;1.10;;;0.80;;
79064;SDS011;68469;51.502;7.462;2023-04-15T05:30:07;1.27;;;0.60;;
79064;SDS011;68469;51.502;7.462;2023-04-15T05:32:33;1.17;;;0.77;;
79064;SDS011;68469;51.502;7.462;2023-04-15T05:34:59;1.08;;;0.70;;
79064;SDS011;68469;51.502;7.462;2023-04-15T05:37:25;1.83;;;0.73;;
79064;SDS011;68469;51.502;7.462;2023-04-15T05:39:50;1.27;;;0.70;;
79064;SDS011;68469;51.502;7.462;2023-04-15T05:42:16;0.95;;;0.57;;
79064;SDS011;68469;51.502;7.462;2023-04-15T05:44:42;3.17;;;0.77;;
79064;SDS011;68469;51.502;7.462;2023-04-15T05:47:07;1.33;;;0.50;;
79064;SDS011;68469;51.502;7.462;2023-04-15T05:49:34;0.90;;;0.60;;
79064;SDS011;68469;51.502;7.462;2023-04-15T05:52:00;1.17;;;0.73;;
79064;SDS011;68469;51.502;7.462;2023-04-15T05:54:25;0.98;;;0.63;;
79064;SDS011;68469;51.502;7.462;2023-04-15T05:56:52;1.40;;;0.90;;
79064;SDS011;68469;51.502;7.462;2023-04-15T05:59:17;2.28;;;0.65;;
79064;SDS011;68469;51.502;7.462;2023-04-15T06:01:43;1.10;;;0.73;;
79064;SDS011;68469;51.502;7.462;2023-04-15T06:04:09;3.70;;;0.68;;
79064;SDS011;68469;51.502;7.462;2023-04-15T06:06:35;0.70;;;0.50;;
79064;SDS011;68469;51.502;7.462;2023-04-15T06:09:02;0.80;;;0.50;;
79064;SDS011;68469;51.502;7.462;2023-04-15T06:11:28;1.63;;;0.80;;
79064;SDS011;68469;51.502;7.462;2023-04-15T06:13:53;1.05;;;0.55;;
79064;SDS011;68469;51.502;7.462;2023-04-15T06:16:19;1.95;;;0.75;;
79064;SDS011;68469;51.502;7.462;2023-04-15T06:18:45;1.48;;;0.50;;
79064;SDS011;68469;51.502;7.462;2023-04-15T06:21:10;1.30;;;0.80;;
79064;SDS011;68469;51.502;7.462;2023-04-15T06:23:36;0.77;;;0.57;;
79064;SDS011;68469;51.502;7.462;2023-04-15T06:26:02;1.15;;;0.80;;
79064;SDS011;68469;51.502;7.462;2023-04-15T06:28:27;1.45;;;0.70;;
79064;SDS011;68469;51.502;7.462;2023-04-15T06:30:53;1.45;;;0.77;;
79064;SDS011;68469;51.502;7.462;2023-04-15T06:33:19;1.60;;;0.85;;
79064;SDS011;68469;51.502;7.462;2023-04-15T06:35:45;2.28;;;0.65;;
79064;SDS011;68469;51.502;7.462;2023-04-15T06:38:11;1.48;;;0.73;;
79064;SDS011;68469;51.502;7.462;2023-04-15T06:40:37;3.17;;;0.70;;
79064;SDS011;68469;51.502;7.462;2023-04-15T06:43:02;1.08;;;0.60;;
79064;SDS011;68469;51.502;7.462;2023-04-15T06:45:28;0.70;;;0.50;;
79064;SDS011;68469;51.502;7.462;2023-04-15T06:47:55;2.20;;;0.80;;
79064;SDS011;68469;51.502;7.462;2023-04-15T06:50:21;0.98;;;0.60;;
79064;SDS011;68469;51.502;7.462;2023-04-15T06:52:46;1.00;;;0.70;;
79064;SDS011;68469;51.502;7.462;2023-04-15T06:55:12;2.35;;;0.65;;
79064;SDS011;68469;51.502;7.462;2023-04-15T06:57:38;1.08;;;0.60;;
79064;SDS011;68469;51.502;7.462;2023-04-15T07:00:04;1.23;;;0.65;;
79064;SDS011;68469;51.502;7.462;2023-04-15T07:02:31;1.80;;;0.70;;
79064;SDS011;68469;51.502;7.462;2023-04-15T07:04:57;0.85;;;0.50;;
79064;SDS011;68469;51.502;7.462;2023-04-15T07:07:22;1.95;;;0.90;;
79064;SDS011;68469;51.502;7.462;2023-04-15T07:09:48;1.13;;;0.65;;
79064;SDS011;68469;51.502;7.462;2023-04-15T07:12:14;1.88;;;0.70;;
79064;SDS011;68469;51.502;7.462;2023-04-15T07:14:39;3.58;;;0.80;;
79064;SDS011;68469;51.502;7.462;2023-04-15T07:17:05;1.05;;;0.70;;
79064;SDS011;68469;51.502;7.462;2023-04-15T07:19:31;0.98;;;0.63;;
79064;SDS011;68469;51.502;7.462;2023-04-15T07:21:57;1.00;;;0.77;;
79064;SDS011;68469;51.502;7.462;2023-04-15T07:24:22;1.23;;;0.70;;
79064;SDS011;68469;51.502;7.462;2023-04-15T07:26:50;1.52;;;0.57;;
79064;SDS011;68469;51.502;7.462;2023-04-15T07:29:17;0.93;;;0.63;;
79064;SDS011;68469;51.502;7.462;2023-04-15T07:31:43;0.93;;;0.60;;
79064;SDS011;68469;51.502;7.462;2023-04-15T07:34:08;0.75;;;0.50;;
79064;SDS011;68469;51.502;7.462;2023-04-15T07:36:34;1.77;;;1.15;;
79064;SDS011;68469;51.502;7.462;2023-04-15T07:39:00;1.80;;;1.27;;
79064;SDS011;68469;51.502;7.462;2023-04-15T07:41:28;3.67;;;1.38;;
79064;SDS011;68469;51.502;7.462;2023-04-15T07:43:54;3.33;;;1.50;;
79064;SDS011;68469;51.502;7.462;2023-04-15T07:46:20;2.08;;;0.90;;
79064;SDS011;68469;51.502;7.462;2023-04-15T07:48:47;2.58;;;1.27;;
79064;SDS011;68469;51.502;7.462;2023-04-15T07:51:13;2.80;;;1.00;;
79064;SDS011;68469;51.502;7.462;2023-04-15T07:53:39;1.92;;;0.80;;
79064;SDS011;68469;51.502;7.462;2023-04-15T07:56:04;3.67;;;1.20;;
79064;SDS011;68469;51.502;7.462;2023-04-15T07:58:30;3.63;;;1.10;;
79064;SDS011;68469;51.502;7.462;2023-04-15T08:00:56;4.68;;;1.17;;
79064;SDS011;68469;51.502;7.462;2023-04-15T08:03:21;7.18;;;1.33;;
79064;SDS011;68469;51.502;7.462;2023-04-15T08:05:47;6.57;;;1.50;;
79064;SDS011;68469;51.502;7.462;2023-04-15T08:08:13;6.82;;;2.63;;
79064;SDS011;68469;51.502;7.462;2023-04-15T08:10:39;11.00;;;4.40;;
79064;SDS011;68469;51.502;7.462;2023-04-15T08:13:05;5.93;;;2.88;;
79064;SDS011;68469;51.502;7.462;2023-04-15T08:15:30;10.23;;;3.33;;
79064;SDS011;68469;51.502;7.462;2023-04-15T08:17:57;7.88;;;3.17;;
79064;SDS011;68469;51.502;7.462;2023-04-15T08:20:24;7.57;;;2.60;;
79064;SDS011;68469;51.502;7.462;2023-04-15T08:22:50;4.85;;;2.53;;
79064;SDS011;68469;51.502;7.462;2023-04-15T08:25:16;6.05;;;2.42;;
79064;SDS011;68469;51.502;7.462;2023-04-15T08:27:43;7.25;;;2.10;;
79064;SDS011;68469;51.502;7.462;2023-04-15T08:30:09;4.72;;;2.50;;
79064;SDS011;68469;51.502;7.462;2023-04-15T08:32:35;6.32;;;2.33;;
79064;SDS011;68469;51.502;7.462;2023-04-15T08:35:01;6.68;;;2.60;;
79064;SDS011;68469;51.502;7.462;2023-04-15T08:37:27;11.60;;;2.65;;
79064;SDS011;68469;51.502;7.462;2023-04-15T08:39:53;4.40;;;2.40;;
79064;SDS011;68469;51.502;7.462;2023-04-15T08:42:22;8.20;;;2.92;;
79064;SDS011;68469;51.502;7.462;2023-04-15T08:47:19;8.10;;;2.80;;
79064;SDS011;68469;51.502;7.462;2023-04-15T08:49:46;3.60;;;2.08;;
79064;SDS011;68469;51.502;7.462;2023-04-15T08:52:17;6.05;;;1.95;;
79064;SDS011;68469;51.502;7.462;2023-04-15T08:54:44;6.22;;;1.85;;
79064;SDS011;68469;51.502;7.462;2023-04-15T08:57:10;4.78;;;1.88;;
79064;SDS011;68469;51.502;7.462;2023-04-15T08:59:36;4.65;;;1.73;;
79064;SDS011;68469;51.502;7.462;2023-04-15T09:02:02;2.67;;;1.45;;
79064;SDS011;68469;51.502;7.462;2023-04-15T09:04:28;3.25;;;1.70;;
79064;SDS011;68469;51.502;7.462;2023-04-15T09:06:54;4.15;;;1.95;;
79064;SDS011;68469;51.502;7.462;2023-04-15T09:09:21;3.47;;;1.50;;
79064;SDS011;68469;51.502;7.462;2023-04-15T09:11:46;2.97;;;1.50;;
79064;SDS011;68469;51.502;7.462;2023-04-15T09:14:14;6.28;;;1.70;;
79064;SDS011;68469;51.502;7.462;2023-04-15T09:16:55;4.07;;;1.70;;
79064;SDS011;68469;51.502;7.462;2023-04-15T09:19:22;3.13;;;1.50;;
79064;SDS011;68469;51.502;7.462;2023-04-15T09:21:50;3.60;;;1.25;;
79064;SDS011;68469;51.502;7.462;2023-04-15T09:24:17;3.63;;;1.48;;
79064;SDS011;68469;51.502;7.462;2023-04-15T09:26:43;3.05;;;1.45;;
79064;SDS011;68469;51.502;7.462;2023-04-15T09:29:09;3.13;;;1.55;;
79064;SDS011;68469;51.502;7.462;2023-04-15T09:31:37;2.45;;;1.17;;
79064;SDS011;68469;51.502;7.462;2023-04-15T09:34:04;2.38;;;1.20;;
79064;SDS011;68469;51.502;7.462;2023-04-15T09:37:04;2.35;;;1.35;;
79064;SDS011;68469;51.502;7.462;2023-04-15T09:39:22;2.33;;;1.20;;
79064;SDS011;68469;51.502;7.462;2023-04-15T09:42:02;5.63;;;1.30;;
79064;SDS011;68469;51.502;7.462;2023-04-15T09:44:30;3.08;;;1.52;;
79064;SDS011;68469;51.502;7.462;2023-04-15T09:46:56;2.95;;;1.27;;
79064;SDS011;68469;51.502;7.462;2023-04-15T09:49:21;2.55;;;1.20;;
79064;SDS011;68469;51.502;7.462;2023-04-15T09:51:47;2.47;;;1.10;;
79064;SDS011;68469;51.502;7.462;2023-04-15T09:54:17;3.00;;;1.30;;
79064;SDS011;68469;51.502;7.462;2023-04-15T09:56:45;3.92;;;1.23;;
79064;SDS011;68469;51.502;7.462;2023-04-15T09:59:11;2.65;;;1.23;;
79064;SDS011;68469;51.502;7.462;2023-04-15T10:01:36;2.97;;;1.10;;
79064;SDS011;68469;51.502;7.462;2023-04-15T10:04:05;3.05;;;1.10;;
79064;SDS011;68469;51.502;7.462;2023-04-15T10:06:31;3.80;;;1.20;;
79064;SDS011;68469;51.502;7.462;2023-04-15T10:08:57;2.85;;;1.13;;
79064;SDS011;68469;51.502;7.462;2023-04-15T10:11:26;5.30;;;1.55;;
79064;SDS011;68469;51.502;7.462;2023-04-15T10:13:53;4.15;;;1.67;;
79064;SDS011;68469;51.502;7.462;2023-04-15T10:16:20;2.17;;;1.40;;
79064;SDS011;68469;51.502;7.462;2023-04-15T10:18:53;11.88;;;1.40;;
79064;SDS011;68469;51.502;7.462;2023-04-15T10:21:20;3.47;;;1.23;;
79064;SDS011;68469;51.502;7.462;2023-04-15T10:23:47;3.55;;;1.33;;
79064;SDS011;68469;51.502;7.462;2023-04-15T10:26:14;4.90;;;1.42;;
79064;SDS011;68469;51.502;7.462;2023-04-15T10:28:41;5.35;;;1.50;;
79064;SDS011;68469;51.502;7.462;2023-04-15T10:31:08;21.83;;;1.42;;
79064;SDS011;68469;51.502;7.462;2023-04-15T10:33:37;4.60;;;1.10;;
79064;SDS011;68469;51.502;7.462;2023-04-15T10:36:04;4.18;;;1.25;;
79064;SDS011;68469;51.502;7.462;2023-04-15T10:38:38;4.38;;;1.23;;
79064;SDS011;68469;51.502;7.462;2023-04-15T10:41:14;3.83;;;1.10;;
79064;SDS011;68469;51.502;7.462;2023-04-15T10:43:47;4.97;;;1.13;;
79064;SDS011;68469;51.502;7.462;2023-04-15T10:46:22;2.85;;;0.90;;
79064;SDS011;68469;51.502;7.462;2023-04-15T10:48:58;5.80;;;1.30;;
79064;SDS011;68469;51.502;7.462;2023-04-15T10:51:37;5.20;;;2.45;;
79064;SDS011;68469;51.502;7.462;2023-04-15T10:54:12;5.55;;;2.55;;
79064;SDS011;68469;51.502;7.462;2023-04-15T10:56:42;4.30;;;2.45;;
79064;SDS011;68469;51.502;7.462;2023-04-15T10:59:15;4.15;;;1.90;;
79064;SDS011;68469;51.502;7.462;2023-04-15T11:01:53;1.63;;;1.27;;
79064;SDS011;68469;51.502;7.462;2023-04-15T11:07:45;7.07;;;1.38;;
79064;SDS011;68469;51.502;7.462;2023-04-15T11:12:41;4.60;;;1.38;;
79064;SDS011;68469;51.502;7.462;2023-04-15T11:18:24;2.58;;;1.25;;
79064;SDS011;68469;51.502;7.462;2023-04-15T11:20:52;1.75;;;1.00;;
79064;SDS011;68469;51.502;7.462;2023-04-15T11:25:56;4.32;;;1.42;;
79064;SDS011;68469;51.502;7.462;2023-04-15T11:28:24;3.53;;;1.02;;
79064;SDS011;68469;51.502;7.462;2023-04-15T11:30:51;2.50;;;1.10;;
79064;SDS011;68469;51.502;7.462;2023-04-15T11:33:18;2.80;;;1.10;;
79064;SDS011;68469;51.502;7.462;2023-04-15T11:35:43;2.47;;;0.88;;
79064;SDS011;68469;51.502;7.462;2023-04-15T11:38:10;2.10;;;0.90;;
79064;SDS011;68469;51.502;7.462;2023-04-15T11:40:41;3.45;;;0.98;;
79064;SDS011;68469;51.502;7.462;2023-04-15T11:43:14;3.60;;;1.15;;
79064;SDS011;68469;51.502;7.462;2023-04-15T11:45:48;3.47;;;1.00;;
79064;SDS011;68469;51.502;7.462;2023-04-15T11:48:25;3.50;;;1.00;;
79064;SDS011;68469;51.502;7.462;2023-04-15T11:50:59;4.90;;;1.10;;
79064;SDS011;68469;51.502;7.462;2023-04-15T11:56:05;5.22;;;1.00;;
79064;SDS011;68469;51.502;7.462;2023-04-15T11:58:33;2.45;;;0.80;;
79064;SDS011;68469;51.502;7.462;2023-04-15T12:01:01;1.50;;;0.90;;
79064;SDS011;68469;51.502;7.462;2023-04-15T12:03:35;1.95;;;1.00;;
79064;SDS011;68469;51.502;7.462;2023-04-15T12:06:15;2.58;;;1.00;;
79064;SDS011;68469;51.502;7.462;2023-04-15T12:14:30;2.25;;;1.20;;
79064;SDS011;68469;51.502;7.462;2023-04-15T12:17:00;3.40;;;1.20;;
79064;SDS011;68469;51.502;7.462;2023-04-15T12:19:35;1.75;;;0.80;;
79064;SDS011;68469;51.502;7.462;2023-04-15T12:22:03;2.03;;;0.88;;
79064;SDS011;68469;51.502;7.462;2023-04-15T12:24:31;2.60;;;1.13;;
79064;SDS011;68469;51.502;7.462;2023-04-15T12:27:00;1.70;;;0.80;;
79064;SDS011;68469;51.502;7.462;2023-04-15T12:29:28;2.97;;;1.35;;
79064;SDS011;68469;51.502;7.462;2023-04-15T12:31:56;1.00;;;0.73;;
79064;SDS011;68469;51.502;7.462;2023-04-15T12:34:28;1.98;;;1.00;;
79064;SDS011;68469;51.502;7.462;2023-04-15T12:36:55;2.88;;;1.20;;
79064;SDS011;68469;51.502;7.462;2023-04-15T12:39:23;1.25;;;0.90;;
79064;SDS011;68469;51.502;7.462;2023-04-15T12:41:50;2.25;;;1.10;;
79064;SDS011;68469;51.502;7.462;2023-04-15T12:44:16;2.65;;;0.80;;
79064;SDS011;68469;51.502;7.462;2023-04-15T12:46:42;1.50;;;0.80;;
79064;SDS011;68469;51.502;7.462;2023-04-15T12:49:07;3.20;;;1.15;;
79064;SDS011;68469;51.502;7.462;2023-04-15T12:51:33;1.45;;;0.98;;
79064;SDS011;68469;51.502;7.462;2023-04-15T12:53:59;4.88;;;1.17;;
79064;SDS011;68469;51.502;7.462;2023-04-15T12:56:25;2.38;;;1.10;;
79064;SDS011;68469;51.502;7.462;2023-04-15T12:58:51;1.45;;;0.88;;
79064;SDS011;68469;51.502;7.462;2023-04-15T13:01:16;0.95;;;0.70;;
79064;SDS011;68469;51.502;7.462;2023-04-15T13:03:42;1.33;;;1.02;;
79064;SDS011;68469;51.502;7.462;2023-04-15T13:06:08;2.13;;;1.02;;
79064;SDS011;68469;51.502;7.462;2023-04-15T13:08:34;3.17;;;0.82;;
79064;SDS011;68469;51.502;7.462;2023-04-15T13:10:59;1.75;;;0.90;;
79064;SDS011;68469;51.502;7.462;2023-04-15T13:13:25;1.85;;;0.82;;
79064;SDS011;68469;51.502;7.462;2023-04-15T13:15:51;1.88;;;0.85;;
79064;SDS011;68469;51.502;7.462;2023-04-15T13:18:17;2.05;;;0.70;;
79064;SDS011;68469;51.502;7.462;2023-04-15T13:20:42;1.10;;;0.85;;
79064;SDS011;68469;51.502;7.462;2023-04-15T13:23:08;1.38;;;0.70;;
79064;SDS011;68469;51.502;7.462;2023-04-15T13:25:34;4.35;;;0.90;;
79064;SDS011;68469;51.502;7.462;2023-04-15T13:28:00;1.90;;;1.00;;
79064;SDS011;68469;51.502;7.462;2023-04-15T13:30:25;5.47;;;1.17;;
79064;SDS011;68469;51.502;7.462;2023-04-15T13:32:52;1.65;;;1.00;;
79064;SDS011;68469;51.502;7.462;2023-04-15T13:35:18;3.65;;;0.93;;
79064;SDS011;68469;51.502;7.462;2023-04-15T13:37:44;1.40;;;1.10;;
79064;SDS011;68469;51.502;7.462;2023-04-15T13:40:11;1.50;;;0.82;;
79064;SDS011;68469;51.502;7.462;2023-04-15T13:42:36;1.85;;;1.00;;
79064;SDS011;68469;51.502;7.462;2023-04-15T13:45:02;1.15;;;0.85;;
79064;SDS011;68469;51.502;7.462;2023-04-15T13:47:28;6.38;;;1.13;;
79064;SDS011;68469;51.502;7.462;2023-04-15T13:49:53;2.33;;;0.80;;
79064;SDS011;68469;51.502;7.462;2023-04-15T13:52:20;2.03;;;0.90;;
79064;SDS011;68469;51.502;7.462;2023-04-15T13:54:47;1.63;;;0.90;;
79064;SDS011;68469;51.502;7.462;2023-04-15T13:57:13;3.20;;;0.90;;
79064;SDS011;68469;51.502;7.462;2023-04-15T13:59:38;4.15;;;0.77;;
79064;SDS011;68469;51.502;7.462;2023-04-15T14:02:05;10.25;;;1.50;;
79064;SDS011;68469;51.502;7.462;2023-04-15T14:04:31;7.22;;;1.30;;
79064;SDS011;68469;51.502;7.462;2023-04-15T14:06:57;5.45;;;1.50;;
79064;SDS011;68469;51.502;7.462;2023-04-15T14:09:22;12.38;;;2.08;;
79064;SDS011;68469;51.502;7.462;2023-04-15T14:11:51;8.07;;;1.48;;
79064;SDS011;68469;51.502;7.462;2023-04-15T14:14:17;8.25;;;1.60;;
79064;SDS011;68469;51.502;7.462;2023-04-15T14:16:42;7.97;;;1.55;;
79064;SDS011;68469;51.502;7.462;2023-04-15T14:19:08;10.63;;;2.15;;
79064;SDS011;68469;51.502;7.462;2023-04-15T14:21:34;9.80;;;1.98;;
79064;SDS011;68469;51.502;7.462;2023-04-15T14:23:59;22.50;;;2.30;;
79064;SDS011;68469;51.502;7.462;2023-04-15T14:26:25;6.53;;;1.63;;
79064;SDS011;68469;51.502;7.462;2023-04-15T14:28:51;10.23;;;2.28;;
79064;SDS011;68469;51.502;7.462;2023-04-15T14:31:17;10.23;;;2.65;;
79064;SDS011;68469;51.502;7.462;2023-04-15T14:33:43;8.52;;;2.03;;
79064;SDS011;68469;51.502;7.462;2023-04-15T14:36:09;7.30;;;1.70;;
79064;SDS011;68469;51.502;7.462;2023-04-15T14:38:35;6.97;;;1.70;;
79064;SDS011;68469;51.502;7.462;2023-04-15T14:41:03;6.40;;;2.08;;
79064;SDS011;68469;51.502;7.462;2023-04-15T14:43:29;11.40;;;2.22;;
79064;SDS011;68469;51.502;7.462;2023-04-15T14:45:54;3.80;;;1.73;;
79064;SDS011;68469;51.502;7.462;2023-04-15T14:48:20;8.43;;;1.90;;
79064;SDS011;68469;51.502;7.462;2023-04-15T14:50:46;8.18;;;2.08;;
79064;SDS011;68469;51.502;7.462;2023-04-15T14:53:11;7.45;;;2.15;;
79064;SDS011;68469;51.502;7.462;2023-04-15T14:55:37;6.32;;;1.80;;
79064;SDS011;68469;51.502;7.462;2023-04-15T14:58:02;4.63;;;1.80;;
79064;SDS011;68469;51.502;7.462;2023-04-15T15:00:28;10.07;;;1.85;;
79064;SDS011;68469;51.502;7.462;2023-04-15T15:02:54;9.05;;;2.08;;
79064;SDS011;68469;51.502;7.462;2023-04-15T15:05:20;3.90;;;1.70;;
79064;SDS011;68469;51.502;7.462;2023-04-15T15:07:46;5.65;;;1.58;;